sensor_id;sensor_type;location;lat;lon;timestamp;pressure;altitude;pressure_sealevel;temperature;humidity
6413;BME280;3239;48.714;9.472;2022-11-15T00:00:25;98609.38;;;7.69;100.00
6413;BME280;3239;48.714;9.472;2022-11-15T00:02:53;98608.66;;;7.74;100.00
6413;BME280;3239;48.714;9.472;2022-11-15T00:05:18;98605.44;;;7.81;100.00
6413;BME280;3239;48.714;9.472;2022-11-15T00:07:44;98600.97;;;7.83;100.00
6413;BME280;3239;48.714;9.472;2022-11-15T00:10:10;98602.97;;;7.88;100.00
6413;BME280;3239;48.714;9.472;2022-11-15T00:12:36;98598.00;;;7.92;100.00
6413;BME280;3239;48.714;9.472;2022-11-15T00:15:02;98601.25;;;7.96;100.00
6413;BME280;3239;48.714;9.472;2022-11-15T00:17:27;98595.28;;;7.87;100.00
6413;BME280;3239;48.714;9.472;2022-11-15T00:19:53;98599.22;;;7.86;100.00
6413;BME280;3239;48.714;9.472;2022-11-15T00:22:19;98596.28;;;7.84;100.00
6413;BME280;3239;48.714;9.472;2022-11-15T00:24:45;98600.47;;;7.85;100.00
6413;BME280;3239;48.714;9.472;2022-11-15T00:27:10;98597.03;;;7.84;100.00
6413;BME280;3239;48.714;9.472;2022-11-15T00:29:36;98600.00;;;7.86;100.00
6413;BME280;3239;48.714;9.472;2022-11-15T00:32:04;98600.47;;;7.85;100.00
6413;BME280;3239;48.714;9.472;2022-11-15T00:34:30;98595.28;;;7.81;100.00
6413;BME280;3239;48.714;9.472;2022-11-15T00:36:56;98591.78;;;7.81;100.00
6413;BME280;3239;48.714;9.472;2022-11-15T00:39:22;98596.00;;;7.76;100.00
6413;BME280;3239;48.714;9.472;2022-11-15T00:41:48;98584.38;;;7.76;100.00
6413;BME280;3239;48.714;9.472;2022-11-15T00:44:13;98594.75;;;7.77;100.00
6413;BME280;3239;48.714;9.472;2022-11-15T00:46:39;98582.63;;;7.78;100.00
6413;BME280;3239;48.714;9.472;2022-11-15T00:49:05;98590.56;;;7.76;100.00
6413;BME280;3239;48.714;9.472;2022-11-15T00:51:30;98571.47;;;7.76;100.00
6413;BME280;3239;48.714;9.472;2022-11-15T00:53:56;98576.44;;;7.78;100.00
6413;BME280;3239;48.714;9.472;2022-11-15T00:56:22;98576.91;;;7.76;100.00
6413;BME280;3239;48.714;9.472;2022-11-15T00:58:48;98558.59;;;7.77;100.00
6413;BME280;3239;48.714;9.472;2022-11-15T01:01:14;98557.56;;;7.69;100.00
6413;BME280;3239;48.714;9.472;2022-11-15T01:03:41;98558.06;;;7.67;100.00
6413;BME280;3239;48.714;9.472;2022-11-15T01:06:08;98554.31;;;7.54;100.00
6413;BME280;3239;48.714;9.472;2022-11-15T01:08:34;98550.59;;;7.51;100.00
6413;BME280;3239;48.714;9.472;2022-11-15T01:11:10;98541.16;;;7.41;100.00
6413;BME280;3239;48.714;9.472;2022-11-15T01:13:38;98553.31;;;7.40;100.00
6413;BME280;3239;48.714;9.472;2022-11-15T01:16:22;98541.19;;;7.36;100.00
6413;BME280;3239;48.714;9.472;2022-11-15T01:18:48;98548.88;;;7.37;100.00
6413;BME280;3239;48.714;9.472;2022-11-15T01:21:17;98542.91;;;7.33;100.00
6413;BME280;3239;48.714;9.472;2022-11-15T01:23:43;98546.38;;;7.28;100.00
6413;BME280;3239;48.714;9.472;2022-11-15T01:26:14;98532.72;;;7.23;100.00
6413;BME280;3239;48.714;9.472;2022-11-15T01:28:41;98533.47;;;7.18;100.00
6413;BME280;3239;48.714;9.472;2022-11-15T01:31:14;98528.50;;;7.16;100.00
6413;BME280;3239;48.714;9.472;2022-11-15T01:33:41;98530.97;;;7.14;100.00
6413;BME280;3239;48.714;9.472;2022-11-15T01:36:11;98532.19;;;7.13;100.00
6413;BME280;3239;48.714;9.472;2022-11-15T01:38:37;98524.03;;;7.08;100.00
6413;BME280;3239;48.714;9.472;2022-11-15T01:41:03;98516.06;;;7.04;100.00
6413;BME280;3239;48.714;9.472;2022-11-15T01:43:35;98505.69;;;7.03;100.00
6413;BME280;3239;48.714;9.472;2022-11-15T01:46:33;98516.06;;;6.99;100.00
6413;BME280;3239;48.714;9.472;2022-11-15T01:49:16;98517.56;;;6.94;100.00
6413;BME280;3239;48.714;9.472;2022-11-15T01:51:42;98507.88;;;6.88;100.00
6413;BME280;3239;48.714;9.472;2022-11-15T01:54:13;98510.59;;;6.88;100.00
6413;BME280;3239;48.714;9.472;2022-11-15T01:56:48;98505.63;;;6.86;100.00
6413;BME280;3239;48.714;9.472;2022-11-15T01:59:16;98509.06;;;6.81;100.00
6413;BME280;3239;48.714;9.472;2022-11-15T02:01:43;98512.03;;;6.78;100.00
6413;BME280;3239;48.714;9.472;2022-11-15T02:04:21;98503.63;;;6.76;100.00
6413;BME280;3239;48.714;9.472;2022-11-15T02:06:48;98503.34;;;6.74;100.00
6413;BME280;3239;48.714;9.472;2022-11-15T02:09:15;98504.34;;;6.71;100.00
6413;BME280;3239;48.714;9.472;2022-11-15T02:11:42;98509.78;;;6.71;100.00
6413;BME280;3239;48.714;9.472;2022-11-15T02:14:09;98496.19;;;6.71;100.00
6413;BME280;3239;48.714;9.472;2022-11-15T02:20:19;98489.22;;;6.64;100.00
6413;BME280;3239;48.714;9.472;2022-11-15T02:23:20;98485.25;;;6.60;100.00
6413;BME280;3239;48.714;9.472;2022-11-15T02:40:39;98470.09;;;6.42;100.00
6413;BME280;3239;48.714;9.472;2022-11-15T02:43:12;98462.38;;;6.35;100.00
6413;BME280;3239;48.714;9.472;2022-11-15T02:46:22;98470.53;;;6.35;100.00
6413;BME280;3239;48.714;9.472;2022-11-15T02:49:12;98470.53;;;6.35;100.00
6413;BME280;3239;48.714;9.472;2022-11-15T02:51:40;98476.91;;;6.27;100.00
6413;BME280;3239;48.714;9.472;2022-11-15T02:54:14;98474.19;;;6.21;100.00
6413;BME280;3239;48.714;9.472;2022-11-15T02:56:43;98465.28;;;6.21;100.00
6413;BME280;3239;48.714;9.472;2022-11-15T03:00:15;98474.66;;;6.20;100.00
6413;BME280;3239;48.714;9.472;2022-11-15T03:02:38;98470.22;;;6.22;100.00
6413;BME280;3239;48.714;9.472;2022-11-15T03:08:26;98460.81;;;6.18;100.00
6413;BME280;3239;48.714;9.472;2022-11-15T03:11:03;98459.81;;;6.21;100.00
6413;BME280;3239;48.714;9.472;2022-11-15T03:14:08;98470.66;;;6.10;100.00
6413;BME280;3239;48.714;9.472;2022-11-15T03:16:50;98469.19;;;6.14;100.00
6413;BME280;3239;48.714;9.472;2022-11-15T03:21:56;98467.00;;;6.18;100.00
6413;BME280;3239;48.714;9.472;2022-11-15T03:24:25;98479.16;;;6.23;100.00
6413;BME280;3239;48.714;9.472;2022-11-15T03:26:53;98478.34;;;6.17;100.00
6413;BME280;3239;48.714;9.472;2022-11-15T03:29:26;98465.75;;;6.19;100.00
6413;BME280;3239;48.714;9.472;2022-11-15T03:32:14;98472.47;;;6.24;100.00
6413;BME280;3239;48.714;9.472;2022-11-15T03:37:14;98469.22;;;6.20;100.00
6413;BME280;3239;48.714;9.472;2022-11-15T03:39:42;98465.53;;;6.23;100.00
6413;BME280;3239;48.714;9.472;2022-11-15T03:45:35;98460.78;;;6.12;100.00
6413;BME280;3239;48.714;9.472;2022-11-15T03:48:13;98449.47;;;5.83;100.00
6413;BME280;3239;48.714;9.472;2022-11-15T03:50:41;98447.06;;;5.90;100.00
6413;BME280;3239;48.714;9.472;2022-11-15T03:53:08;98446.28;;;5.84;100.00
6413;BME280;3239;48.714;9.472;2022-11-15T03:55:34;98443.97;;;5.77;100.00
6413;BME280;3239;48.714;9.472;2022-11-15T03:58:01;98447.19;;;5.76;100.00
6413;BME280;3239;48.714;9.472;2022-11-15T04:00:28;98441.56;;;5.85;100.00
6413;BME280;3239;48.714;9.472;2022-11-15T04:02:54;98443.47;;;5.73;100.00
6413;BME280;3239;48.714;9.472;2022-11-15T04:05:19;98442.63;;;5.62;100.00
6413;BME280;3239;48.714;9.472;2022-11-15T04:07:45;98441.00;;;5.75;100.00
6413;BME280;3239;48.714;9.472;2022-11-15T04:10:11;98434.88;;;5.80;100.00
6413;BME280;3239;48.714;9.472;2022-11-15T04:12:43;98437.50;;;5.69;100.00
6413;BME280;3239;48.714;9.472;2022-11-15T04:15:15;98435.34;;;5.79;100.00
6413;BME280;3239;48.714;9.472;2022-11-15T04:17:52;98445.47;;;5.78;100.00
6413;BME280;3239;48.714;9.472;2022-11-15T04:20:25;98433.84;;;5.78;100.00
6413;BME280;3239;48.714;9.472;2022-11-15T04:23:15;98441.09;;;5.86;100.00
6413;BME280;3239;48.714;9.472;2022-11-15T04:26:12;98446.00;;;5.82;100.00
6413;BME280;3239;48.714;9.472;2022-11-15T04:28:38;98444.78;;;5.83;100.00
6413;BME280;3239;48.714;9.472;2022-11-15T04:31:23;98460.59;;;5.85;100.00
6413;BME280;3239;48.714;9.472;2022-11-15T04:33:49;98455.13;;;5.79;100.00
6413;BME280;3239;48.714;9.472;2022-11-15T04:36:15;98458.38;;;5.83;100.00
6413;BME280;3239;48.714;9.472;2022-11-15T04:38:59;98453.97;;;5.86;100.00
6413;BME280;3239;48.714;9.472;2022-11-15T04:41:25;98438.38;;;5.86;100.00
6413;BME280;3239;48.714;9.472;2022-11-15T04:43:50;98451.00;;;5.89;100.00
6413;BME280;3239;48.714;9.472;2022-11-15T04:46:16;98445.53;;;5.84;100.00
6413;BME280;3239;48.714;9.472;2022-11-15T04:48:42;98440.38;;;5.91;100.00
6413;BME280;3239;48.714;9.472;2022-11-15T04:51:08;98448.47;;;5.80;100.00
6413;BME280;3239;48.714;9.472;2022-11-15T04:53:34;98439.34;;;5.83;100.00
6413;BME280;3239;48.714;9.472;2022-11-15T04:55:59;98448.28;;;5.89;100.00
6413;BME280;3239;48.714;9.472;2022-11-15T04:58:25;98455.69;;;5.83;100.00
6413;BME280;3239;48.714;9.472;2022-11-15T05:00:51;98441.31;;;5.52;100.00
6413;BME280;3239;48.714;9.472;2022-11-15T05:03:16;98438.59;;;5.52;100.00
6413;BME280;3239;48.714;9.472;2022-11-15T05:06:01;98443.03;;;5.49;100.00
6413;BME280;3239;48.714;9.472;2022-11-15T05:08:27;98440.78;;;5.48;100.00
6413;BME280;3239;48.714;9.472;2022-11-15T05:10:53;98451.25;;;5.55;100.00
6413;BME280;3239;48.714;9.472;2022-11-15T05:13:19;98448.78;;;5.57;100.00
6413;BME280;3239;48.714;9.472;2022-11-15T05:15:44;98442.81;;;5.53;100.00
6413;BME280;3239;48.714;9.472;2022-11-15T05:18:10;98455.97;;;5.60;100.00
6413;BME280;3239;48.714;9.472;2022-11-15T05:20:36;98448.06;;;5.62;100.00
6413;BME280;3239;48.714;9.472;2022-11-15T05:23:02;98447.13;;;5.65;100.00
6413;BME280;3239;48.714;9.472;2022-11-15T05:25:27;98454.50;;;5.64;100.00
6413;BME280;3239;48.714;9.472;2022-11-15T05:27:53;98447.63;;;5.69;100.00
6413;BME280;3239;48.714;9.472;2022-11-15T05:30:19;98447.63;;;5.69;100.00
6413;BME280;3239;48.714;9.472;2022-11-15T05:32:45;98444.41;;;5.65;100.00
6413;BME280;3239;48.714;9.472;2022-11-15T05:35:31;98440.94;;;5.64;100.00
6413;BME280;3239;48.714;9.472;2022-11-15T05:38:00;98435.97;;;5.63;100.00
6413;BME280;3239;48.714;9.472;2022-11-15T05:40:27;98430.00;;;5.59;100.00
6413;BME280;3239;48.714;9.472;2022-11-15T05:42:54;98434.72;;;5.58;100.00
6413;BME280;3239;48.714;9.472;2022-11-15T05:45:20;98428.28;;;5.61;100.00
6413;BME280;3239;48.714;9.472;2022-11-15T05:47:46;98432.72;;;5.59;100.00
6413;BME280;3239;48.714;9.472;2022-11-15T05:50:15;98419.09;;;5.53;100.00
6413;BME280;3239;48.714;9.472;2022-11-15T05:52:41;98425.31;;;5.59;100.00
6413;BME280;3239;48.714;9.472;2022-11-15T05:55:08;98422.56;;;5.54;100.00
6413;BME280;3239;48.714;9.472;2022-11-15T05:57:34;98415.09;;;5.43;100.00
6413;BME280;3239;48.714;9.472;2022-11-15T06:00:01;98413.63;;;5.48;100.00
6413;BME280;3239;48.714;9.472;2022-11-15T06:02:28;98416.34;;;5.48;100.00
6413;BME280;3239;48.714;9.472;2022-11-15T06:04:53;98414.06;;;5.41;100.00
6413;BME280;3239;48.714;9.472;2022-11-15T06:07:19;98417.78;;;5.43;100.00
6413;BME280;3239;48.714;9.472;2022-11-15T06:09:45;98417.03;;;5.43;100.00
6413;BME280;3239;48.714;9.472;2022-11-15T06:12:10;98420.75;;;5.40;100.00
6413;BME280;3239;48.714;9.472;2022-11-15T06:14:36;98424.47;;;5.42;100.00
6413;BME280;3239;48.714;9.472;2022-11-15T06:17:02;98406.19;;;5.43;100.00
6413;BME280;3239;48.714;9.472;2022-11-15T06:19:28;98417.25;;;5.34;100.00
6413;BME280;3239;48.714;9.472;2022-11-15T06:21:59;98424.16;;;5.35;100.00
6413;BME280;3239;48.714;9.472;2022-11-15T06:24:25;98426.13;;;5.34;100.00
6413;BME280;3239;48.714;9.472;2022-11-15T06:26:51;98426.88;;;5.35;100.00
6413;BME280;3239;48.714;9.472;2022-11-15T06:29:16;98424.09;;;5.29;100.00
6413;BME280;3239;48.714;9.472;2022-11-15T06:31:42;98422.63;;;5.28;100.00
6413;BME280;3239;48.714;9.472;2022-11-15T06:34:08;98422.91;;;5.30;100.00
6413;BME280;3239;48.714;9.472;2022-11-15T06:36:35;98419.69;;;5.32;100.00
6413;BME280;3239;48.714;9.472;2022-11-15T06:39:03;98416.72;;;5.30;100.00
6413;BME280;3239;48.714;9.472;2022-11-15T06:41:29;98418.41;;;5.27;100.00
6413;BME280;3239;48.714;9.472;2022-11-15T06:43:55;98420.19;;;5.30;100.00
6413;BME280;3239;48.714;9.472;2022-11-15T06:46:21;98424.84;;;5.30;100.00
6413;BME280;3239;48.714;9.472;2022-11-15T06:48:47;98415.47;;;5.31;100.00
6413;BME280;3239;48.714;9.472;2022-11-15T06:51:14;98414.53;;;5.34;100.00
6413;BME280;3239;48.714;9.472;2022-11-15T06:55:42;98416.84;;;5.46;100.00
6413;BME280;3239;48.714;9.472;2022-11-15T06:58:07;98427.66;;;5.41;100.00
6413;BME280;3239;48.714;9.472;2022-11-15T07:00:33;98417.84;;;5.49;100.00
6413;BME280;3239;48.714;9.472;2022-11-15T07:03:02;98425.81;;;5.58;100.00
6413;BME280;3239;48.714;9.472;2022-11-15T07:05:28;98427.09;;;5.68;100.00
6413;BME280;3239;48.714;9.472;2022-11-15T07:07:56;98431.84;;;5.73;100.00
6413;BME280;3239;48.714;9.472;2022-11-15T07:10:23;98426.41;;;5.73;100.00
6413;BME280;3239;48.714;9.472;2022-11-15T07:12:51;98432.22;;;5.91;100.00
6413;BME280;3239;48.714;9.472;2022-11-15T07:15:19;98442.94;;;6.06;100.00
6413;BME280;3239;48.714;9.472;2022-11-15T07:17:45;98438.78;;;6.16;100.00
6413;BME280;3239;48.714;9.472;2022-11-15T07:20:11;98437.16;;;6.40;100.00
6413;BME280;3239;48.714;9.472;2022-11-15T07:22:39;98440.44;;;6.55;100.00
6413;BME280;3239;48.714;9.472;2022-11-15T07:25:05;98435.78;;;6.72;100.00
6413;BME280;3239;48.714;9.472;2022-11-15T07:27:31;98424.41;;;6.68;100.00
6413;BME280;3239;48.714;9.472;2022-11-15T07:29:57;98416.78;;;6.94;100.00
6413;BME280;3239;48.714;9.472;2022-11-15T07:32:22;98404.38;;;6.93;100.00
6413;BME280;3239;48.714;9.472;2022-11-15T07:34:48;98386.06;;;7.16;100.00
6413;BME280;3239;48.714;9.472;2022-11-15T07:37:14;98367.00;;;7.21;100.00
6413;BME280;3239;48.714;9.472;2022-11-15T07:39:39;98351.88;;;7.09;100.00
6413;BME280;3239;48.714;9.472;2022-11-15T07:42:05;98341.72;;;6.93;100.00
6413;BME280;3239;48.714;9.472;2022-11-15T07:44:50;98328.38;;;7.01;100.00
6413;BME280;3239;48.714;9.472;2022-11-15T07:47:15;98322.44;;;7.19;100.00
6413;BME280;3239;48.714;9.472;2022-11-15T07:49:41;98317.28;;;7.89;100.00
6413;BME280;3239;48.714;9.472;2022-11-15T07:52:07;98295.44;;;8.46;100.00
6413;BME280;3239;48.714;9.472;2022-11-15T07:54:32;98264.28;;;8.95;100.00
6413;BME280;3239;48.714;9.472;2022-11-15T07:56:58;98213.72;;;8.83;100.00
6413;BME280;3239;48.714;9.472;2022-11-15T07:59:24;98179.69;;;9.08;100.00
6413;BME280;3239;48.714;9.472;2022-11-15T08:01:50;98129.69;;;8.41;100.00
6413;BME280;3239;48.714;9.472;2022-11-15T08:04:15;98112.13;;;9.27;100.00
6413;BME280;3239;48.714;9.472;2022-11-15T08:06:42;98068.00;;;10.04;100.00
6413;BME280;3239;48.714;9.472;2022-11-15T08:09:08;98024.25;;;10.56;100.00
6413;BME280;3239;48.714;9.472;2022-11-15T08:11:33;97973.38;;;9.64;100.00
6413;BME280;3239;48.714;9.472;2022-11-15T08:13:59;97965.47;;;9.11;100.00
6413;BME280;3239;48.714;9.472;2022-11-15T08:16:25;97972.81;;;9.21;100.00
6413;BME280;3239;48.714;9.472;2022-11-15T08:18:50;97958.13;;;9.69;100.00
6413;BME280;3239;48.714;9.472;2022-11-15T08:21:20;97941.06;;;10.07;100.00
6413;BME280;3239;48.714;9.472;2022-11-15T08:23:46;97932.31;;;10.22;100.00
6413;BME280;3239;48.714;9.472;2022-11-15T08:26:12;97917.56;;;10.38;100.00
6413;BME280;3239;48.714;9.472;2022-11-15T08:28:38;97906.66;;;10.71;100.00
6413;BME280;3239;48.714;9.472;2022-11-15T08:31:04;97888.19;;;10.38;100.00
6413;BME280;3239;48.714;9.472;2022-11-15T08:33:31;97889.19;;;9.57;100.00
6413;BME280;3239;48.714;9.472;2022-11-15T08:35:59;97909.25;;;10.04;100.00
6413;BME280;3239;48.714;9.472;2022-11-15T08:38:26;97899.53;;;9.77;100.00
6413;BME280;3239;48.714;9.472;2022-11-15T08:41:02;97905.81;;;9.59;100.00
6413;BME280;3239;48.714;9.472;2022-11-15T08:43:28;97916.25;;;9.87;100.00
6413;BME280;3239;48.714;9.472;2022-11-15T08:45:58;97917.31;;;10.62;100.00
6413;BME280;3239;48.714;9.472;2022-11-15T08:48:24;97898.88;;;10.62;100.00
6413;BME280;3239;48.714;9.472;2022-11-15T08:50:56;97884.72;;;10.12;100.00
6413;BME280;3239;48.714;9.472;2022-11-15T08:53:22;97895.63;;;9.73;100.00
6413;BME280;3239;48.714;9.472;2022-11-15T08:55:48;97901.16;;;10.25;100.00
6413;BME280;3239;48.714;9.472;2022-11-15T08:58:14;97887.72;;;10.94;100.00
6413;BME280;3239;48.714;9.472;2022-11-15T09:00:40;97874.28;;;11.03;100.00
6413;BME280;3239;48.714;9.472;2022-11-15T09:03:06;97868.69;;;10.29;100.00
6413;BME280;3239;48.714;9.472;2022-11-15T09:05:32;97887.97;;;10.23;100.00
6413;BME280;3239;48.714;9.472;2022-11-15T09:08:01;97895.03;;;10.32;100.00
6413;BME280;3239;48.714;9.472;2022-11-15T09:10:26;97898.38;;;10.38;100.00
6413;BME280;3239;48.714;9.472;2022-11-15T09:12:52;97890.81;;;11.72;100.00
6413;BME280;3239;48.714;9.472;2022-11-15T09:15:18;97857.63;;;11.91;100.00
6413;BME280;3239;48.714;9.472;2022-11-15T09:17:45;97846.31;;;12.30;100.00
6413;BME280;3239;48.714;9.472;2022-11-15T09:20:11;97822.84;;;12.94;100.00
6413;BME280;3239;48.714;9.472;2022-11-15T09:22:37;97795.56;;;13.19;100.00
6413;BME280;3239;48.714;9.472;2022-11-15T09:25:04;97779.25;;;13.06;100.00
6413;BME280;3239;48.714;9.472;2022-11-15T09:27:30;97778.66;;;12.92;100.00
6413;BME280;3239;48.714;9.472;2022-11-15T09:29:56;97781.72;;;12.51;100.00
6413;BME280;3239;48.714;9.472;2022-11-15T09:32:23;97783.38;;;11.96;100.00
6413;BME280;3239;48.714;9.472;2022-11-15T09:34:49;97802.97;;;12.08;100.00
6413;BME280;3239;48.714;9.472;2022-11-15T09:37:16;97814.47;;;12.42;100.00
6413;BME280;3239;48.714;9.472;2022-11-15T09:39:41;97817.66;;;12.68;100.00
6413;BME280;3239;48.714;9.472;2022-11-15T09:42:43;97801.41;;;12.85;100.00
6413;BME280;3239;48.714;9.472;2022-11-15T09:45:31;97800.66;;;12.77;100.00
6413;BME280;3239;48.714;9.472;2022-11-15T09:50:46;97814.69;;;12.51;100.00
6413;BME280;3239;48.714;9.472;2022-11-15T09:53:36;97799.44;;;13.23;100.00
6413;BME280;3239;48.714;9.472;2022-11-15T09:56:19;97768.16;;;13.73;100.00
6413;BME280;3239;48.714;9.472;2022-11-15T09:59:04;97753.97;;;13.92;100.00
6413;BME280;3239;48.714;9.472;2022-11-15T10:04:41;97744.41;;;13.38;100.00
6413;BME280;3239;48.714;9.472;2022-11-15T10:10:36;97751.34;;;14.48;100.00
6413;BME280;3239;48.714;9.472;2022-11-15T10:13:06;97729.84;;;14.15;100.00
6413;BME280;3239;48.714;9.472;2022-11-15T10:15:35;97722.66;;;14.19;100.00
6413;BME280;3239;48.714;9.472;2022-11-15T10:21:29;97708.28;;;14.85;100.00
6413;BME280;3239;48.714;9.472;2022-11-15T10:23:58;97710.88;;;15.75;100.00
6413;BME280;3239;48.714;9.472;2022-11-15T10:26:24;97692.94;;;16.54;100.00
6413;BME280;3239;48.714;9.472;2022-11-15T10:28:50;97674.84;;;15.73;100.00
6413;BME280;3239;48.714;9.472;2022-11-15T10:31:25;97665.97;;;16.81;100.00
6413;BME280;3239;48.714;9.472;2022-11-15T10:34:10;97650.84;;;16.46;100.00
6413;BME280;3239;48.714;9.472;2022-11-15T10:36:38;97645.56;;;15.87;100.00
6413;BME280;3239;48.714;9.472;2022-11-15T10:39:03;97645.44;;;15.68;100.00
6413;BME280;3239;48.714;9.472;2022-11-15T10:41:35;97654.19;;;15.74;100.00
6413;BME280;3239;48.714;9.472;2022-11-15T10:44:17;97659.81;;;15.16;100.00
6413;BME280;3239;48.714;9.472;2022-11-15T10:49:31;97656.50;;;15.51;100.00
6413;BME280;3239;48.714;9.472;2022-11-15T10:52:15;97657.75;;;14.99;100.00
6413;BME280;3239;48.714;9.472;2022-11-15T10:57:26;97661.81;;;14.25;100.00
6413;BME280;3239;48.714;9.472;2022-11-15T11:00:02;97666.06;;;14.26;100.00
6413;BME280;3239;48.714;9.472;2022-11-15T11:05:06;97639.72;;;16.63;100.00
6413;BME280;3239;48.714;9.472;2022-11-15T11:07:35;97612.88;;;17.11;100.00
6413;BME280;3239;48.714;9.472;2022-11-15T11:10:20;97620.50;;;16.65;100.00
6413;BME280;3239;48.714;9.472;2022-11-15T11:12:46;97610.88;;;16.30;100.00
6413;BME280;3239;48.714;9.472;2022-11-15T11:15:15;97606.03;;;17.12;100.00
6413;BME280;3239;48.714;9.472;2022-11-15T11:18:07;97616.09;;;16.62;100.00
6413;BME280;3239;48.714;9.472;2022-11-15T11:20:53;97616.84;;;16.36;100.00
6413;BME280;3239;48.714;9.472;2022-11-15T11:23:57;97612.78;;;16.01;100.00
6413;BME280;3239;48.714;9.472;2022-11-15T11:41:54;97645.28;;;15.32;100.00
6413;BME280;3239;48.714;9.472;2022-11-15T11:47:36;97647.19;;;14.47;100.00
6413;BME280;3239;48.714;9.472;2022-11-15T11:50:14;97643.03;;;14.80;100.00
6413;BME280;3239;48.714;9.472;2022-11-15T11:53:31;97633.88;;;14.77;100.00
6413;BME280;3239;48.714;9.472;2022-11-15T11:56:14;97635.25;;;14.86;100.00
6413;BME280;3239;48.714;9.472;2022-11-15T11:58:44;97644.03;;;14.92;100.00
6413;BME280;3239;48.714;9.472;2022-11-15T12:01:15;97635.06;;;15.25;100.00
6413;BME280;3239;48.714;9.472;2022-11-15T12:09:21;97594.22;;;15.07;100.00
6413;BME280;3239;48.714;9.472;2022-11-15T12:14:59;97608.41;;;14.45;100.00
6413;BME280;3239;48.714;9.472;2022-11-15T12:17:29;97607.69;;;14.44;100.00
6413;BME280;3239;48.714;9.472;2022-11-15T12:25:28;97586.16;;;14.67;100.00
6413;BME280;3239;48.714;9.472;2022-11-15T12:28:36;97585.94;;;14.90;100.00
6413;BME280;3239;48.714;9.472;2022-11-15T12:33:47;97575.28;;;14.69;100.00
6413;BME280;3239;48.714;9.472;2022-11-15T12:39:07;97585.59;;;14.69;100.00
6413;BME280;3239;48.714;9.472;2022-11-15T12:41:43;97585.59;;;14.69;100.00
6413;BME280;3239;48.714;9.472;2022-11-15T12:52:06;97592.00;;;14.54;100.00
6413;BME280;3239;48.714;9.472;2022-11-15T13:02:39;97576.22;;;14.47;100.00
6413;BME280;3239;48.714;9.472;2022-11-15T13:17:48;97582.66;;;14.25;100.00
6413;BME280;3239;48.714;9.472;2022-11-15T13:30:56;97531.16;;;14.35;100.00
6413;BME280;3239;48.714;9.472;2022-11-15T13:33:36;97526.69;;;14.40;100.00
6413;BME280;3239;48.714;9.472;2022-11-15T13:36:21;97516.91;;;14.46;100.00
6413;BME280;3239;48.714;9.472;2022-11-15T13:39:05;97517.16;;;14.41;100.00
6413;BME280;3239;48.714;9.472;2022-11-15T13:41:34;97510.97;;;14.50;100.00
6413;BME280;3239;48.714;9.472;2022-11-15T13:44:02;97500.03;;;14.18;100.00
6413;BME280;3239;48.714;9.472;2022-11-15T13:46:31;97510.06;;;14.30;100.00
6413;BME280;3239;48.714;9.472;2022-11-15T13:49:09;97500.00;;;14.25;100.00
6413;BME280;3239;48.714;9.472;2022-11-15T13:51:53;97508.94;;;14.33;100.00
6413;BME280;3239;48.714;9.472;2022-11-15T13:54:30;97511.78;;;14.43;100.00
6413;BME280;3239;48.714;9.472;2022-11-15T13:57:05;97522.66;;;14.41;100.00
6413;BME280;3239;48.714;9.472;2022-11-15T13:59:44;97514.53;;;14.43;100.00
6413;BME280;3239;48.714;9.472;2022-11-15T14:02:26;97495.41;;;14.45;100.00
6413;BME280;3239;48.714;9.472;2022-11-15T14:05:20;97485.13;;;14.45;100.00
6413;BME280;3239;48.714;9.472;2022-11-15T14:08:12;97486.25;;;14.42;100.00
6413;BME280;3239;48.714;9.472;2022-11-15T14:10:39;97487.94;;;14.38;100.00
6413;BME280;3239;48.714;9.472;2022-11-15T14:13:29;97477.91;;;14.33;100.00
6413;BME280;3239;48.714;9.472;2022-11-15T14:16:20;97485.41;;;14.32;100.00
6413;BME280;3239;48.714;9.472;2022-11-15T14:18:50;97489.38;;;14.22;100.00
6413;BME280;3239;48.714;9.472;2022-11-15T14:21:16;97486.13;;;14.16;100.00
6413;BME280;3239;48.714;9.472;2022-11-15T14:23:43;97488.94;;;14.08;100.00
6413;BME280;3239;48.714;9.472;2022-11-15T14:28:53;97504.22;;;13.77;100.00
6413;BME280;3239;48.714;9.472;2022-11-15T14:31:20;97500.25;;;13.63;100.00
6413;BME280;3239;48.714;9.472;2022-11-15T14:33:46;97494.56;;;13.69;100.00
6413;BME280;3239;48.714;9.472;2022-11-15T14:36:14;97505.56;;;13.69;100.00
6413;BME280;3239;48.714;9.472;2022-11-15T14:38:41;97493.66;;;13.66;100.00
6413;BME280;3239;48.714;9.472;2022-11-15T14:41:24;97499.56;;;13.63;100.00
6413;BME280;3239;48.714;9.472;2022-11-15T14:43:51;97494.47;;;13.52;100.00
6413;BME280;3239;48.714;9.472;2022-11-15T14:46:17;97497.69;;;13.41;100.00
6413;BME280;3239;48.714;9.472;2022-11-15T14:48:43;97495.63;;;13.41;100.00
6413;BME280;3239;48.714;9.472;2022-11-15T14:51:15;97503.00;;;13.39;100.00
6413;BME280;3239;48.714;9.472;2022-11-15T14:53:41;97511.47;;;13.33;100.00
6413;BME280;3239;48.714;9.472;2022-11-15T14:56:09;97511.28;;;13.31;100.00
6413;BME280;3239;48.714;9.472;2022-11-15T14:58:36;97508.38;;;13.29;100.00
6413;BME280;3239;48.714;9.472;2022-11-15T15:01:20;97507.47;;;13.27;100.00
6413;BME280;3239;48.714;9.472;2022-11-15T15:03:47;97509.69;;;13.21;100.00
6413;BME280;3239;48.714;9.472;2022-11-15T15:06:12;97505.28;;;13.18;100.00
6413;BME280;3239;48.714;9.472;2022-11-15T15:08:42;97503.31;;;13.11;100.00
6413;BME280;3239;48.714;9.472;2022-11-15T15:11:16;97508.47;;;13.07;100.00
6413;BME280;3239;48.714;9.472;2022-11-15T15:13:44;97498.75;;;13.06;100.00
6413;BME280;3239;48.714;9.472;2022-11-15T15:16:09;97509.78;;;12.98;100.00
6413;BME280;3239;48.714;9.472;2022-11-15T15:18:35;97517.66;;;12.94;100.00
6413;BME280;3239;48.714;9.472;2022-11-15T15:21:02;97518.19;;;12.93;100.00
6413;BME280;3239;48.714;9.472;2022-11-15T15:23:32;97519.16;;;12.88;100.00
6413;BME280;3239;48.714;9.472;2022-11-15T15:25:59;97523.75;;;12.85;100.00
6413;BME280;3239;48.714;9.472;2022-11-15T15:28:25;97516.78;;;12.77;100.00
6413;BME280;3239;48.714;9.472;2022-11-15T15:30:50;97522.50;;;12.71;100.00
6413;BME280;3239;48.714;9.472;2022-11-15T15:33:18;97526.16;;;12.66;100.00
6413;BME280;3239;48.714;9.472;2022-11-15T15:35:43;97529.09;;;12.61;100.00
6413;BME280;3239;48.714;9.472;2022-11-15T15:38:11;97548.69;;;12.57;100.00
6413;BME280;3239;48.714;9.472;2022-11-15T15:40:37;97547.63;;;12.53;100.00
6413;BME280;3239;48.714;9.472;2022-11-15T15:43:03;97541.59;;;12.47;100.00
6413;BME280;3239;48.714;9.472;2022-11-15T15:45:36;97551.28;;;12.40;100.00
6413;BME280;3239;48.714;9.472;2022-11-15T15:48:03;97559.16;;;12.29;100.00